Time;durP1;ratioP1;P1;durP2;ratioP2;P2;SDS_P1;SDS_P2;PMS_P1;PMS_P2;Temp;Humidity;BMP_temperature;BMP_pressure;BME280_temperature;BME280_humidity;BME280_pressure;Samples;Min_cycle;Max_cycle;Signal;HPM_P1;HPM_P2
2022/12/13 00:00:33;;;;;;;47.03;19.70;;;;;;;-7.21;100.00;101226.53;4993062;28;20038;-79
2022/12/13 00:02:58;;;;;;;45.00;19.17;;;;;;;-7.05;100.00;101262.03;4991918;28;20113;-79
2022/12/13 00:05:23;;;;;;;38.92;18.67;;;;;;;-7.01;100.00;101269.00;4992731;28;20052;-79
2022/12/13 00:07:49;;;;;;;45.78;19.65;;;;;;;-7.02;100.00;101279.09;4992995;28;20027;-79
2022/12/13 00:10:14;;;;;;;52.70;21.65;;;;;;;-7.05;100.00;101267.13;4992931;28;20031;-79
2022/12/13 00:12:39;;;;;;;52.13;21.63;;;;;;;-7.07;100.00;101268.69;4992460;28;20446;-79
2022/12/13 00:15:05;;;;;;;54.97;22.80;;;;;;;-7.12;100.00;101248.16;4992846;28;20099;-79
2022/12/13 00:17:32;;;;;;;50.72;23.63;;;;;;;-7.03;100.00;101255.41;4989832;28;20069;-79
2022/12/13 00:19:57;;;;;;;54.42;23.10;;;;;;;-6.99;100.00;101262.38;4987793;28;20381;-79
2022/12/13 00:22:22;;;;;;;53.53;25.08;;;;;;;-7.05;100.00;101256.97;4989545;28;20065;-80
2022/12/13 00:24:48;;;;;;;46.33;22.58;;;;;;;-7.06;100.00;101247.63;4990542;28;20061;-79
2022/12/13 00:27:13;;;;;;;47.15;22.67;;;;;;;-7.01;100.00;101252.94;4989479;28;20054;-79
2022/12/13 00:29:38;;;;;;;50.20;21.55;;;;;;;-7.00;100.00;101255.53;4984874;28;20026;-79
2022/12/13 00:32:03;;;;;;;43.63;20.63;;;;;;;-7.01;100.00;101258.00;4987766;28;20015;-79
2022/12/13 00:34:29;;;;;;;41.28;19.75;;;;;;;-7.09;100.00;101253.41;4993017;28;20027;-79
2022/12/13 00:36:57;;;;;;;44.97;19.27;;;;;;;-7.13;100.00;101253.13;4988683;28;20027;-79
2022/12/13 00:39:23;;;;;;;48.35;19.98;;;;;;;-7.15;100.00;101248.00;4992475;28;20038;-79
2022/12/13 00:41:48;;;;;;;41.00;18.30;;;;;;;-7.14;100.00;101251.41;4992675;28;20033;-79
2022/12/13 00:44:14;;;;;;;38.88;18.50;;;;;;;-7.16;100.00;101252.97;4992462;28;20037;-79
2022/12/13 00:46:40;;;;;;;41.35;19.50;;;;;;;-7.18;100.00;101259.63;4993130;28;20157;-79
2022/12/13 00:49:06;;;;;;;44.97;20.77;;;;;;;-7.21;100.00;101255.25;4993364;28;20385;-79
2022/12/13 00:51:33;;;;;;;39.30;19.20;;;;;;;-7.24;100.00;101260.16;4992055;28;20495;-79
2022/12/13 00:53:59;;;;;;;47.67;20.70;;;;;;;-7.38;100.00;101244.22;4993671;28;20125;-79
2022/12/13 00:56:28;;;;;;;38.40;17.67;;;;;;;-7.30;100.00;101250.56;4992072;28;20052;-79
2022/12/13 00:58:54;;;;;;;44.10;18.40;;;;;;;-7.31;100.00;101248.81;4984782;28;20026;-79
2022/12/13 01:01:24;;;;;;;40.00;19.55;;;;;;;-7.32;100.00;101248.75;4989915;28;20034;-79
2022/12/13 01:03:50;;;;;;;41.60;19.35;;;;;;;-7.39;100.00;101239.94;4987422;28;20104;-79
2022/12/13 01:06:39;;;;;;;38.78;19.20;;;;;;;-7.38;100.00;101246.75;4991075;28;20034;-79
2022/12/13 01:09:09;;;;;;;36.85;17.67;;;;;;;-7.38;100.00;101256.00;4992029;28;20080;-79
2022/12/13 01:11:34;;;;;;;41.80;19.45;;;;;;;-7.39;100.00;101242.47;4990439;28;20026;-79
2022/12/13 01:13:59;;;;;;;42.60;17.65;;;;;;;-7.38;100.00;101246.75;4992294;28;20022;-79
2022/12/13 01:16:25;;;;;;;37.25;18.73;;;;;;;-7.40;100.00;101242.38;4992022;28;20030;-79
2022/12/13 01:18:50;;;;;;;39.65;18.55;;;;;;;-7.45;100.00;101234.53;4980721;28;20031;-79
2022/12/13 01:21:17;;;;;;;43.53;19.27;;;;;;;-7.47;100.00;101242.84;4992015;28;20022;-79
2022/12/13 01:23:44;;;;;;;39.33;19.83;;;;;;;-7.53;100.00;101235.75;4986526;28;20478;-79
2022/12/13 01:26:12;;;;;;;37.90;18.08;;;;;;;-7.51;100.00;101234.19;4983541;28;20047;-79
2022/12/13 01:28:38;;;;;;;39.28;18.45;;;;;;;-7.50;100.00;101235.06;4992173;28;20133;-79
2022/12/13 01:31:06;;;;;;;40.45;18.60;;;;;;;-7.49;100.00;101231.72;4991992;28;20109;-79
2022/12/13 01:33:32;;;;;;;43.60;18.75;;;;;;;-7.49;100.00;101240.19;4990762;28;20034;-79
2022/12/13 01:36:01;;;;;;;45.63;20.65;;;;;;;-7.52;100.00;101237.53;4992039;28;20030;-79
2022/12/13 01:38:27;;;;;;;46.65;19.70;;;;;;;-7.57;100.00;101227.13;4991843;28;20065;-79
2022/12/13 01:40:58;;;;;;;42.42;20.27;;;;;;;-7.53;100.00;101250.94;4991155;28;20050;-79
2022/12/13 01:43:46;;;;;;;45.25;19.38;;;;;;;-7.57;100.00;101243.97;4993055;28;20528;-79
2022/12/13 01:46:13;;;;;;;40.22;18.55;;;;;;;-7.54;100.00;101265.28;4985609;28;20050;-79
2022/12/13 01:48:50;;;;;;;43.88;18.67;;;;;;;-7.52;100.00;101257.78;4991349;28;20066;-79
2022/12/13 01:51:20;;;;;;;43.88;19.17;;;;;;;-7.55;100.00;101255.06;4991224;28;20039;-79
2022/12/13 01:53:48;;;;;;;43.17;18.88;;;;;;;-7.55;100.00;101255.94;4987900;28;20354;-79
2022/12/13 01:56:22;;;;;;;42.47;19.40;;;;;;;-7.59;100.00;101246.41;4991389;28;20034;-79
2022/12/13 01:58:48;;;;;;;;;;;;;;;-7.54;100.00;101254.28;4992985;28;20113;-79
2022/12/13 02:01:15;;;;;;;41.20;18.55;;;;;;;-7.53;100.00;101261.06;4989065;28;19917;-79
2022/12/13 02:03:41;;;;;;;43.97;20.02;;;;;;;-7.54;100.00;101254.28;4983502;28;20034;-79
2022/12/13 02:06:14;;;;;;;42.28;19.45;;;;;;;-7.53;100.00;101254.34;4991178;28;20075;-79
2022/12/13 02:08:41;;;;;;;;;;;;;;;-7.53;100.00;101245.88;4981887;28;20038;-79
2022/12/13 02:11:11;;;;;;;41.00;18.98;;;;;;;-7.54;100.00;101249.22;4991758;28;19918;-79
2022/12/13 02:13:36;;;;;;;48.20;20.08;;;;;;;-7.50;100.00;101245.19;4990669;28;20508;-79
2022/12/13 02:16:23;;;;;;;50.13;20.90;;;;;;;-7.49;100.00;101239.31;4991183;28;20073;-80
2022/12/13 02:19:03;;;;;;;42.90;19.58;;;;;;;-7.54;100.00;101228.97;4991028;28;20038;-79
2022/12/13 02:21:40;;;;;;;48.47;21.33;;;;;;;-7.46;100.00;101242.91;4991515;28;20062;-79
2022/12/13 02:24:32;;;;;;;47.83;20.40;;;;;;;-7.48;100.00;101244.50;4991275;28;20061;-79
2022/12/13 02:27:02;;;;;;;44.30;19.92;;;;;;;-7.50;100.00;101240.13;4973060;28;20069;-79
2022/12/13 02:29:58;;;;;;;51.25;21.52;;;;;;;-7.45;100.00;101249.72;4991864;28;20604;-79
2022/12/13 02:32:44;;;;;;;46.28;20.77;;;;;;;-7.44;100.00;101248.94;4991842;28;20045;-79
2022/12/13 02:35:19;;;;;;;43.53;19.67;;;;;;;-7.44;100.00;101236.28;4995598;28;20026;-79
2022/12/13 02:38:03;;;;;;;50.45;20.83;;;;;;;-7.42;100.00;101244.84;4983291;28;20036;-79
2022/12/13 02:40:33;;;;;;;46.78;20.52;;;;;;;-7.48;100.00;101229.31;4992537;28;20121;-80
2022/12/13 02:43:18;;;;;;;45.47;21.52;;;;;;;-7.42;100.00;101237.25;4995035;28;20049;-79
2022/12/13 02:45:49;;;;;;;50.03;21.30;;;;;;;-7.41;100.00;101233.91;4994321;28;20110;-79
2022/12/13 02:48:21;;;;;;;50.95;20.95;;;;;;;-7.49;100.00;101217.41;4995141;28;20034;-80
2022/12/13 02:50:47;;;;;;;46.53;20.13;;;;;;;-7.44;100.00;101222.75;4980724;28;20551;-79
2022/12/13 02:53:14;;;;;;;44.83;19.65;;;;;;;-7.43;100.00;101227.00;4996007;28;20077;-80
2022/12/13 02:55:40;;;;;;;43.58;20.23;;;;;;;-7.44;100.00;101221.06;4994757;28;20061;-79
2022/12/13 02:58:05;;;;;;;48.92;21.92;;;;;;;-7.51;100.00;101202.94;4993934;28;20065;-79
2022/12/13 03:00:50;;;;;;;48.78;20.23;;;;;;;-7.45;100.00;101213.41;4994218;28;20478;-80
2022/12/13 03:03:31;;;;;;;44.30;21.00;;;;;;;-7.44;100.00;101208.41;4994648;28;20030;-79
2022/12/13 03:09:11;;;;;;;50.05;19.70;;;;;;;-7.44;100.00;101215.16;4984402;28;20492;-79
2022/12/13 03:15:07;;;;;;;46.40;22.00;;;;;;;-7.41;100.00;101217.84;4994296;28;20053;-79
2022/12/13 03:17:39;;;;;;;50.78;20.08;;;;;;;-7.40;100.00;101217.91;4994698;28;20048;-80
2022/12/13 03:20:06;;;;;;;43.97;20.37;;;;;;;-7.46;100.00;101212.50;4989513;28;20083;-79
2022/12/13 03:22:34;;;;;;;51.00;20.65;;;;;;;-7.44;100.00;101210.94;4993222;28;20104;-80
2022/12/13 03:25:00;;;;;;;48.70;21.73;;;;;;;-7.41;100.00;101211.13;4993744;28;20031;-80
2022/12/13 03:27:25;;;;;;;50.38;22.50;;;;;;;-7.42;100.00;101205.94;4992655;28;20115;-79
2022/12/13 03:29:50;;;;;;;50.30;21.98;;;;;;;-7.41;100.00;101208.59;4994789;28;20425;-80
2022/12/13 03:32:16;;;;;;;44.80;19.80;;;;;;;-7.49;100.00;101212.34;4993774;28;20030;-79
2022/12/13 03:34:41;;;;;;;50.40;20.70;;;;;;;-7.45;100.00;101216.81;4985056;28;20026;-80
2022/12/13 03:37:06;;;;;;;50.95;21.58;;;;;;;-7.48;100.00;101209.03;4992850;28;20035;-79
2022/12/13 03:39:32;;;;;;;49.17;20.60;;;;;;;-7.48;100.00;101214.09;4992869;28;20504;-80
2022/12/13 03:41:58;;;;;;;45.25;20.27;;;;;;;-7.46;100.00;101212.50;4993677;28;20548;-79
2022/12/13 03:44:23;;;;;;;43.83;20.77;;;;;;;-7.49;100.00;101212.34;4980362;28;20026;-80
2022/12/13 03:46:49;;;;;;;45.67;21.20;;;;;;;-7.55;100.00;101201.91;4991709;28;20681;-79
2022/12/13 03:49:14;;;;;;;46.90;21.35;;;;;;;-7.53;100.00;101212.97;4994420;28;20096;-80
2022/12/13 03:51:40;;;;;;;43.47;20.52;;;;;;;-7.56;100.00;101205.19;4994182;28;20023;-80
2022/12/13 03:54:05;;;;;;;45.85;20.40;;;;;;;-7.53;100.00;101211.31;4993075;28;20054;-80
2022/12/13 03:56:31;;;;;;;48.70;21.00;;;;;;;-7.69;100.00;101182.53;4989122;28;20406;-79
2022/12/13 03:58:56;;;;;;;44.33;20.23;;;;;;;-7.57;100.00;101206.00;4979563;28;20035;-79
2022/12/13 04:01:22;;;;;;;50.25;20.15;;;;;;;-7.67;100.00;101193.63;4980479;28;20027;-79
2022/12/13 04:03:47;;;;;;;41.58;19.58;;;;;;;-7.64;100.00;101193.78;4984876;28;20050;-79
2022/12/13 04:06:14;;;;;;;48.40;22.27;;;;;;;-7.61;100.00;101202.44;4987755;28;20041;-80
2022/12/13 04:08:39;;;;;;;46.22;20.02;;;;;;;-7.65;100.00;101199.63;4978507;28;20482;-79
2022/12/13 04:13:49;;;;;;;50.90;21.40;;;;;;;-7.60;100.00;101201.63;4985027;28;20408;-80
2022/12/13 04:16:15;;;;;;;48.85;20.77;;;;;;;-7.65;100.00;101195.44;4982447;28;20031;-80
2022/12/13 04:18:40;;;;;;;48.33;20.02;;;;;;;-7.58;100.00;101196.66;4987366;28;20026;-80
2022/12/13 04:21:05;;;;;;;49.75;21.20;;;;;;;-7.67;100.00;101176.75;4983344;28;20030;-79
2022/12/13 04:23:31;;;;;;;47.53;20.70;;;;;;;-7.55;100.00;101186.72;4991394;28;20359;-80
2022/12/13 04:25:58;;;;;;;52.97;22.23;;;;;;;-7.56;100.00;101179.88;4991011;28;20042;-80
2022/12/13 04:28:23;;;;;;;49.28;21.00;;;;;;;-7.52;100.00;101191.94;4992627;28;20045;-80
2022/12/13 04:30:50;;;;;;;49.97;21.98;;;;;;;-7.49;100.00;101189.53;4988730;28;20030;-80
2022/12/13 04:33:15;;;;;;;47.17;20.67;;;;;;;-7.47;100.00;101190.50;4989138;28;20018;-79
2022/12/13 04:35:40;;;;;;;42.15;20.30;;;;;;;-7.51;100.00;101175.94;4978310;28;20491;-80
2022/12/13 04:38:06;;;;;;;52.95;21.13;;;;;;;-7.49;100.00;101181.09;4986897;28;20026;-80
2022/12/13 04:40:31;;;;;;;48.97;21.25;;;;;;;-7.46;100.00;101184.66;4983945;28;20031;-79
2022/12/13 04:42:56;;;;;;;49.63;21.92;;;;;;;-7.48;100.00;101178.66;4991870;28;20033;-80
2022/12/13 04:45:22;;;;;;;44.55;20.77;;;;;;;-7.47;100.00;101185.44;4992564;28;20026;-79
2022/12/13 04:47:47;;;;;;;46.00;20.27;;;;;;;-7.50;100.00;101182.75;4989320;28;20033;-80
2022/12/13 04:50:12;;;;;;;45.95;21.48;;;;;;;-7.50;100.00;101177.69;4986019;28;20034;-80
2022/12/13 04:52:38;;;;;;;50.70;20.95;;;;;;;-7.55;100.00;101164.78;4983333;28;20038;-80
2022/12/13 04:55:05;;;;;;;43.33;20.20;;;;;;;-7.55;100.00;101174.91;4989406;28;20026;-80
2022/12/13 04:57:30;;;;;;;45.25;20.95;;;;;;;-7.58;100.00;101174.75;4985388;28;20455;-80
2022/12/13 04:59:55;;;;;;;45.78;21.02;;;;;;;-7.55;100.00;101171.50;4984937;28;20102;-80
2022/12/13 05:02:21;;;;;;;50.30;21.15;;;;;;;-7.61;100.00;101171.16;4990529;28;20113;-80
2022/12/13 05:04:46;;;;;;;47.92;21.98;;;;;;;-7.57;100.00;101178.16;4989438;28;20109;-80
2022/12/13 05:07:11;;;;;;;49.22;20.65;;;;;;;-7.62;100.00;101175.38;4987754;28;20106;-79
2022/12/13 05:09:36;;;;;;;43.60;19.90;;;;;;;-7.60;100.00;101173.78;4992394;28;20030;-80
2022/12/13 05:12:02;;;;;;;43.88;21.75;;;;;;;-7.61;100.00;101173.72;4991466;28;20034;-80
2022/12/13 05:14:31;;;;;;;48.67;20.98;;;;;;;-7.61;100.00;101174.56;4992936;28;20022;-80
2022/12/13 05:16:56;;;;;;;49.67;22.13;;;;;;;-7.62;100.00;101171.94;4991131;28;21889;-80
2022/12/13 05:19:22;;;;;;;40.63;19.73;;;;;;;-7.63;100.00;101172.75;4991296;28;20049;-80
2022/12/13 05:21:48;;;;;;;46.42;20.60;;;;;;;-7.64;100.00;101165.94;4991705;28;20467;-80
2022/12/13 05:24:13;;;;;;;46.53;20.30;;;;;;;-7.63;100.00;101171.06;4993018;28;20033;-80
2022/12/13 05:26:38;;;;;;;47.28;21.98;;;;;;;-7.66;100.00;101157.38;4991973;28;20069;-80
2022/12/13 05:29:03;;;;;;;50.53;21.50;;;;;;;-7.68;100.00;101167.44;4991554;28;20109;-80
2022/12/13 05:31:29;;;;;;;45.35;20.83;;;;;;;-7.68;100.00;101166.56;4992102;28;20014;-80
2022/12/13 05:33:54;;;;;;;49.65;21.30;;;;;;;-7.74;100.00;101145.97;4985752;28;20034;-80
2022/12/13 05:36:24;;;;;;;53.35;22.90;;;;;;;-7.72;100.00;101151.97;4991973;28;20481;-80
2022/12/13 05:38:49;;;;;;;48.58;21.95;;;;;;;-7.82;100.00;101141.34;4992716;28;20120;-80
2022/12/13 05:41:17;;;;;;;46.38;21.77;;;;;;;-7.75;100.00;101155.19;4991558;28;20105;-80
2022/12/13 05:43:43;;;;;;;47.15;21.10;;;;;;;-7.71;100.00;101149.53;4992990;28;20023;-80
2022/12/13 05:46:09;;;;;;;47.80;20.67;;;;;;;-7.71;100.00;101153.75;4991566;28;20154;-80
2022/12/13 05:48:34;;;;;;;47.28;21.80;;;;;;;-7.79;100.00;101143.16;4990817;28;20581;-80
2022/12/13 05:50:59;;;;;;;46.97;20.58;;;;;;;-7.88;100.00;101128.38;4992015;28;20568;-80
2022/12/13 05:53:24;;;;;;;51.20;21.95;;;;;;;-7.78;100.00;101144.94;4991954;28;20551;-80
2022/12/13 05:55:50;;;;;;;53.78;23.23;;;;;;;-7.72;100.00;101149.44;4991651;28;20039;-80
2022/12/13 05:58:15;;;;;;;53.15;21.52;;;;;;;-7.72;100.00;101152.84;4991829;28;20100;-80
2022/12/13 06:00:41;;;;;;;46.58;21.38;;;;;;;-7.72;100.00;101146.91;4990785;28;20038;-80
2022/12/13 06:03:06;;;;;;;44.90;21.20;;;;;;;-7.73;100.00;101153.63;4990966;28;20466;-80
2022/12/13 06:05:32;;;;;;;46.25;20.95;;;;;;;-7.80;100.00;101149.03;4989065;28;20042;-80
2022/12/13 06:07:58;;;;;;;50.58;20.98;;;;;;;-7.82;100.00;101146.41;4988396;28;20026;-80
2022/12/13 06:10:24;;;;;;;45.15;19.63;;;;;;;-7.81;100.00;101163.34;4991907;28;20408;-80
2022/12/13 06:12:49;;;;;;;43.85;19.83;;;;;;;-7.84;100.00;101157.25;4996070;28;20027;-80
2022/12/13 06:15:14;;;;;;;45.25;19.38;;;;;;;-7.94;100.00;101148.28;4995643;28;20106;-80
2022/12/13 06:17:40;;;;;;;46.95;21.35;;;;;;;-7.90;100.00;101151.84;4994275;28;20030;-80
2022/12/13 06:20:06;;;;;;;48.97;20.48;;;;;;;-7.84;100.00;101160.66;4994116;28;20444;-80
2022/12/13 06:22:31;;;;;;;54.17;22.10;;;;;;;-7.94;100.00;101144.88;4992953;28;20030;-80
2022/12/13 06:24:57;;;;;;;46.00;20.50;;;;;;;-7.91;100.00;101156.03;4992654;28;20030;-80
2022/12/13 06:27:22;;;;;;;44.80;20.50;;;;;;;-7.98;100.00;101143.81;4994406;28;20061;-80
2022/12/13 06:29:47;;;;;;;45.42;20.77;;;;;;;-7.91;100.00;101158.56;4992753;28;20026;-80
2022/12/13 06:32:13;;;;;;;47.38;21.75;;;;;;;-7.96;100.00;101156.56;4992484;28;20466;-80
2022/12/13 06:34:38;;;;;;;50.72;21.90;;;;;;;-8.14;100.00;101131.06;4991868;28;20035;-80
2022/12/13 06:37:06;;;;;;;49.35;20.67;;;;;;;-7.93;100.00;101156.72;4988781;28;20034;-80
2022/12/13 06:39:32;;;;;;;47.67;20.58;;;;;;;-7.90;100.00;101167.03;4995081;28;20031;-79
2022/12/13 06:41:58;;;;;;;48.78;22.42;;;;;;;-7.93;100.00;101160.13;4994943;28;20374;-80
2022/12/13 06:44:23;;;;;;;46.55;20.27;;;;;;;-7.92;100.00;101172.00;4993706;28;20037;-80
2022/12/13 06:46:48;;;;;;;44.55;19.98;;;;;;;-7.93;100.00;101164.31;4994558;28;20033;-79
2022/12/13 06:49:13;;;;;;;50.30;22.50;;;;;;;-8.02;100.00;101160.47;4994966;28;20027;-80
2022/12/13 06:51:39;;;;;;;47.35;21.25;;;;;;;-7.99;100.00;101171.56;4993597;28;20038;-80
2022/12/13 06:54:04;;;;;;;44.38;20.70;;;;;;;-8.06;100.00;101157.69;4993953;28;20106;-80
2022/12/13 06:56:30;;;;;;;51.47;20.58;;;;;;;-8.04;100.00;101149.41;4994778;28;20055;-80
2022/12/13 06:58:56;;;;;;;50.85;21.13;;;;;;;-8.09;100.00;101155.00;4993907;28;20434;-80
2022/12/13 07:01:21;;;;;;;48.58;20.55;;;;;;;-8.08;100.00;101159.25;4995479;28;20108;-79
2022/12/13 07:03:47;;;;;;;51.92;21.92;;;;;;;-8.10;100.00;101163.38;4992699;28;20041;-80
2022/12/13 07:06:14;;;;;;;51.28;21.73;;;;;;;-8.11;100.00;101164.16;4991245;28;20030;-80
2022/12/13 07:08:41;;;;;;;55.33;22.42;;;;;;;-8.16;100.00;101152.91;4994695;28;20117;-80
2022/12/13 07:11:07;;;;;;;46.13;21.48;;;;;;;-8.19;100.00;101147.69;4993567;28;20065;-79
2022/12/13 07:13:35;;;;;;;52.15;22.08;;;;;;;-8.16;100.00;101157.97;4995459;28;20039;-80
2022/12/13 07:16:00;;;;;;;50.25;21.75;;;;;;;-8.15;100.00;101152.13;4989135;28;20448;-80
2022/12/13 07:18:26;;;;;;;51.92;21.65;;;;;;;-8.11;100.00;101159.09;4991863;28;20038;-80
2022/12/13 07:20:51;;;;;;;47.83;21.95;;;;;;;-8.15;100.00;101152.13;4994191;28;20049;-80
2022/12/13 07:23:16;;;;;;;58.67;23.90;;;;;;;-8.14;100.00;101157.28;4994350;28;20397;-80
2022/12/13 07:25:41;;;;;;;54.78;23.35;;;;;;;-8.11;100.00;101154.94;4992127;28;20082;-80
2022/12/13 07:28:08;;;;;;;54.70;22.58;;;;;;;-8.10;100.00;101145.66;4994406;28;20113;-80
2022/12/13 07:30:36;;;;;;;51.30;23.33;;;;;;;-8.05;100.00;101156.91;4993114;28;20156;-80
2022/12/13 07:33:03;;;;;;;54.70;23.10;;;;;;;-8.03;100.00;101156.22;4994272;28;20026;-80
2022/12/13 07:35:30;;;;;;;56.28;23.20;;;;;;;-8.01;100.00;101163.91;4992772;28;20616;-80
2022/12/13 07:37:55;;;;;;;55.80;24.77;;;;;;;-8.13;100.00;101135.38;4985731;28;20416;-80
2022/12/13 07:40:21;;;;;;;58.92;24.52;;;;;;;-7.97;100.00;101154.81;4990955;28;20022;-80
2022/12/13 07:42:50;;;;;;;62.03;25.48;;;;;;;-7.92;100.00;101161.00;4992888;28;20101;-80
2022/12/13 07:45:16;;;;;;;55.97;24.02;;;;;;;-7.88;100.00;101162.91;4985655;28;20120;-80
2022/12/13 07:47:41;;;;;;;60.42;25.58;;;;;;;-7.82;100.00;101159.06;4984551;28;20109;-79
2022/12/13 07:50:06;;;;;;;62.10;25.35;;;;;;;-7.75;100.00;101159.41;4987963;28;20026;-79
2022/12/13 07:52:32;;;;;;;66.78;25.35;;;;;;;-7.68;100.00;101169.97;4976358;28;20042;-80
2022/12/13 07:54:57;;;;;;;57.30;24.77;;;;;;;-7.63;100.00;101170.19;4988949;28;20081;-79
2022/12/13 07:57:22;;;;;;;61.72;25.33;;;;;;;-7.61;100.00;101171.16;4994236;28;20072;-79
2022/12/13 07:59:48;;;;;;;66.82;28.33;;;;;;;-7.55;100.00;101171.50;4987351;28;20036;-81
2022/12/13 08:02:13;;;;;;;63.40;25.75;;;;;;;-7.51;100.00;101170.88;4992836;28;20073;-82
2022/12/13 08:04:38;;;;;;;62.67;27.90;;;;;;;-7.51;100.00;101160.75;4991777;28;20030;-82
2022/12/13 08:07:07;;;;;;;64.88;28.63;;;;;;;-7.45;100.00;101163.63;4989449;28;20040;-82
2022/12/13 08:09:33;;;;;;;68.28;27.23;;;;;;;-7.44;100.00;101161.97;4994002;28;20118;-82
2022/12/13 08:11:58;;;;;;;65.05;27.23;;;;;;;-7.43;100.00;101161.16;4994212;28;20042;-82
2022/12/13 08:14:23;;;;;;;64.00;26.23;;;;;;;-7.37;100.00;101162.34;4988493;28;20354;-82
2022/12/13 08:16:49;;;;;;;66.68;26.90;;;;;;;-7.32;100.00;101163.50;4990555;28;20026;-82
2022/12/13 08:19:14;;;;;;;69.63;27.17;;;;;;;-7.36;100.00;101148.94;4988975;28;20033;-81
2022/12/13 08:21:40;;;;;;;70.18;28.67;;;;;;;-7.23;100.00;101172.34;4987775;28;20492;-82
2022/12/13 08:24:07;;;;;;;70.50;28.08;;;;;;;-7.19;100.00;101166.69;4992830;28;20050;-82
2022/12/13 08:26:32;;;;;;;69.03;28.27;;;;;;;-7.31;100.00;101144.97;4989387;28;20053;-82
2022/12/13 08:28:58;;;;;;;71.82;28.13;;;;;;;-7.19;100.00;101164.16;4992855;28;20026;-81
2022/12/13 08:31:24;;;;;;;68.22;28.75;;;;;;;-7.19;100.00;101161.63;4993722;28;20084;-82
2022/12/13 08:33:49;;;;;;;72.95;28.85;;;;;;;-7.09;100.00;101174.84;4993309;28;20109;-81
2022/12/13 08:36:16;;;;;;;68.93;29.60;;;;;;;-7.05;100.00;101173.34;4993004;28;20041;-81
2022/12/13 08:38:43;;;;;;;68.60;28.33;;;;;;;-6.97;100.00;101173.72;4992630;28;20034;-81
2022/12/13 08:41:08;;;;;;;73.63;28.63;;;;;;;-6.85;100.00;101171.84;4993301;28;20528;-82
2022/12/13 08:43:34;;;;;;;74.22;30.52;;;;;;;-6.79;100.00;101171.31;4991531;28;20030;-81
2022/12/13 08:46:00;;;;;;;72.90;30.27;;;;;;;-6.72;100.00;101175.88;4989729;28;20022;-82
2022/12/13 08:48:25;;;;;;;81.53;31.75;;;;;;;-6.69;100.00;101176.03;4991152;28;20024;-80
2022/12/13 08:50:51;;;;;;;68.88;29.90;;;;;;;-6.67;100.00;101169.38;4992278;28;20377;-80
2022/12/13 08:53:16;;;;;;;79.93;30.42;;;;;;;-6.67;100.00;101160.13;4992039;28;20030;-80
2022/12/13 08:55:42;;;;;;;75.68;32.40;;;;;;;-6.49;100.00;101180.47;4992861;28;20061;-79
2022/12/13 08:58:07;;;;;;;75.53;29.70;;;;;;;-6.39;100.00;101190.28;4992723;28;20057;-80
2022/12/13 09:00:35;;;;;;;78.07;32.25;;;;;;;-6.29;100.00;101188.22;4982214;28;20486;-80
2022/12/13 09:03:02;;;;;;;75.75;32.13;;;;;;;-6.19;100.00;101187.88;4990075;28;20076;-79
2022/12/13 09:05:28;;;;;;;79.80;32.10;;;;;;;-6.01;100.00;101183.69;4993458;28;20030;-80
2022/12/13 09:07:54;;;;;;;88.13;34.15;;;;;;;-5.89;100.00;101183.38;4993113;28;20032;-80
2022/12/13 09:10:20;;;;;;;83.45;33.50;;;;;;;-5.80;100.00;101190.56;4992782;28;20190;-80
2022/12/13 09:12:45;;;;;;;76.63;30.48;;;;;;;-5.76;100.00;101190.78;4992625;28;20106;-79
2022/12/13 09:15:10;;;;;;;77.60;31.88;;;;;;;-5.84;100.00;101169.25;4988501;28;20033;-79
2022/12/13 09:17:36;;;;;;;83.38;33.78;;;;;;;-5.81;100.00;101176.16;4992331;28;20480;-79
2022/12/13 09:20:01;;;;;;;77.45;32.40;;;;;;;-5.69;100.00;101187.75;4991595;28;20101;-79
2022/12/13 09:22:27;;;;;;;79.40;31.73;;;;;;;-5.61;100.00;101194.88;4993265;28;20030;-79
2022/12/13 09:24:52;;;;;;;78.88;32.25;;;;;;;-5.55;100.00;101187.53;4990918;28;20097;-79
2022/12/13 09:27:18;;;;;;;83.10;34.05;;;;;;;-5.55;100.00;101183.31;4992678;28;20035;-79
2022/12/13 09:29:45;;;;;;;78.95;32.83;;;;;;;-5.50;100.00;101181.84;4991242;28;20034;-79
2022/12/13 09:32:11;;;;;;;83.35;33.88;;;;;;;-5.43;100.00;101178.81;4991337;28;20022;-77
2022/12/13 09:34:36;;;;;;;83.32;33.13;;;;;;;-5.43;100.00;101176.28;4984828;28;20040;-79
2022/12/13 09:37:01;;;;;;;88.55;36.30;;;;;;;-5.38;100.00;101183.25;4992607;28;20041;-79
2022/12/13 09:39:27;;;;;;;75.35;33.30;;;;;;;-5.37;100.00;101187.50;4991737;28;20026;-78
2022/12/13 09:41:56;;;;;;;83.03;35.75;;;;;;;-5.35;100.00;101178.31;4992390;28;20039;-78
2022/12/13 09:44:37;;;;;;;85.05;36.72;;;;;;;-5.24;100.00;101180.50;4995244;28;20371;-78
2022/12/13 09:47:08;;;;;;;83.30;33.50;;;;;;;-5.22;100.00;101178.06;4993962;28;20468;-79
2022/12/13 09:49:37;;;;;;;87.78;34.30;;;;;;;-5.21;100.00;101179.78;4996232;28;20030;-79
2022/12/13 09:52:05;;;;;;;80.32;32.15;;;;;;;-5.22;100.00;101167.91;4989622;28;20528;-80
2022/12/13 09:54:32;;;;;;;81.38;34.42;;;;;;;-5.11;100.00;101181.09;4992141;28;20038;-79
2022/12/13 09:56:57;;;;;;;88.35;36.30;;;;;;;-5.08;100.00;101179.53;4992383;28;20084;-81
2022/12/13 09:59:28;;;;;;;79.05;34.55;;;;;;;-5.09;100.00;101170.19;4989966;28;20418;-80
2022/12/13 10:01:55;;;;;;;85.57;35.15;;;;;;;-5.02;100.00;101179.81;4996151;28;20030;-79
2022/12/13 10:04:20;;;;;;;91.63;35.35;;;;;;;-5.00;100.00;101178.22;4986493;28;20035;-79
2022/12/13 10:06:50;;;;;;;91.63;37.72;;;;;;;-5.07;100.00;101152.44;4977256;28;20033;-79
2022/12/13 10:09:17;;;;;;;87.18;35.95;;;;;;;-4.90;100.00;101171.03;4985223;28;20032;-79
2022/12/13 10:11:50;;;;;;;91.50;37.00;;;;;;;-4.88;100.00;101165.16;4995967;28;20023;-79
2022/12/13 10:14:35;;;;;;;92.07;38.50;;;;;;;-4.83;100.00;101165.41;4993340;28;20046;-80
2022/12/13 10:17:06;;;;;;;95.97;39.72;;;;;;;-4.75;100.00;101161.50;4985614;28;20114;-79
2022/12/13 10:19:39;;;;;;;93.30;41.03;;;;;;;-4.72;100.00;101143.81;4994900;28;20386;-79
2022/12/13 10:22:10;;;;;;;118.88;56.90;;;;;;;-4.65;100.00;101138.19;4985900;28;20094;-78
2022/12/13 10:24:56;;;;;;;129.60;57.75;;;;;;;-4.53;100.00;101153.97;4994766;28;20046;-79
2022/12/13 10:27:44;;;;;;;134.68;60.78;;;;;;;-4.50;100.00;101159.22;4985693;28;20042;-79
2022/12/13 10:30:15;;;;;;;121.05;51.80;;;;;;;-4.48;100.00;101141.44;4993514;28;20041;-78
2022/12/13 10:32:46;;;;;;;111.38;47.38;;;;;;;-4.48;100.00;101138.91;4985833;28;20084;-79
2022/12/13 10:35:33;;;;;;;89.97;39.65;;;;;;;-4.53;100.00;101130.22;4989416;28;20469;-79
2022/12/13 10:38:01;;;;;;;86.35;37.30;;;;;;;-4.55;100.00;101114.88;4992002;28;20038;-81
2022/12/13 10:40:35;;;;;;;89.53;35.42;;;;;;;-4.49;100.00;101132.06;4990773;28;20378;-76
2022/12/13 10:43:20;;;;;;;81.18;36.63;;;;;;;-4.51;100.00;101142.22;4994752;28;20124;-79
2022/12/13 10:45:54;;;;;;;79.35;32.72;;;;;;;-4.54;100.00;101139.53;4992080;28;20022;-78
2022/12/13 10:48:22;;;;;;;81.63;33.88;;;;;;;-4.60;100.00;101131.63;4995374;28;20112;-78
2022/12/13 10:50:58;;;;;;;79.78;34.42;;;;;;;-4.55;100.00;101125.03;4985876;28;20572;-80
2022/12/13 10:53:28;;;;;;;81.43;35.55;;;;;;;-4.45;100.00;101121.22;4987105;28;20081;-78
2022/12/13 10:55:55;;;;;;;86.20;35.42;;;;;;;-4.36;100.00;101096.16;4994548;28;20022;-80
2022/12/13 10:58:20;;;;;;;85.28;36.80;;;;;;;-4.21;100.00;101087.41;4994457;28;20044;-80
2022/12/13 11:00:46;;;;;;;94.60;38.47;;;;;;;-4.07;100.00;101097.31;4994809;28;20031;-79
2022/12/13 11:03:28;;;;;;;83.15;35.40;;;;;;;-3.89;100.00;101099.75;4994336;28;20465;-80
2022/12/13 11:06:13;;;;;;;84.15;37.15;;;;;;;-3.81;100.00;101072.00;4995209;28;20081;-80
2022/12/13 11:08:40;;;;;;;77.07;32.97;;;;;;;-3.64;100.00;101081.16;4991999;28;20034;-78
2022/12/13 11:11:07;;;;;;;74.97;35.17;;;;;;;-3.61;100.00;101088.91;4994304;28;20030;-79
2022/12/13 11:13:35;;;;;;;77.88;33.63;;;;;;;-3.55;100.00;101086.59;4991087;28;20034;-79